Time,TemperatureF,DewpointF,PressureIn,WindDirection,WindDirectionDegrees,WindSpeedMPH,WindSpeedGustMPH,Humidity,HourlyPrecipIn,Conditions,Clouds,dailyrainin,SoftwareType,DateUTC
2013-05-03 00:01:00,70.0,70.0,29.52,NW,308,2.0,4.0,99,0.00,,,0.00,,2013-05-03 06:01:00,
2013-05-03 00:11:00,70.0,70.0,29.52,NW,308,2.0,4.0,99,0.00,,,0.00,,2013-05-03 06:11:00,
2013-05-03 00:21:00,70.0,70.0,29.52,NW,308,2.0,4.0,99,0.00,,,0.00,,2013-05-03 06:21:00,
2013-05-03 00:31:00,70.0,70.0,29.50,NW,308,2.0,4.0,99,0.00,,,0.00,,2013-05-03 06:31:00,
2013-05-03 00:42:00,70.0,70.0,29.50,NW,308,2.0,4.0,99,0.00,,,0.00,,2013-05-03 06:42:00,
2013-05-03 00:52:00,70.0,70.0,29.51,NW,308,2.0,4.0,99,0.00,,,0.00,,2013-05-03 06:52:00,
2013-05-03 01:01:00,70.0,70.0,29.49,NW,308,2.0,4.0,99,0.00,,,0.00,,2013-05-03 07:01:00,
2013-05-03 01:11:00,70.0,70.0,29.49,NW,308,2.0,4.0,99,0.00,,,0.00,,2013-05-03 07:11:00,
2013-05-03 01:21:00,70.0,70.0,29.49,NW,308,2.0,4.0,99,0.00,,,0.00,,2013-05-03 07:21:00,
2013-05-03 01:31:00,70.0,70.0,29.49,NW,308,2.0,4.0,99,0.00,,,0.00,,2013-05-03 07:31:00,
2013-05-03 01:42:00,70.0,70.0,29.49,NW,308,2.0,4.0,99,0.00,,,0.00,,2013-05-03 07:42:00,
2013-05-03 01:52:00,70.0,70.0,29.48,NW,308,2.0,4.0,99,0.00,,,0.00,,2013-05-03 07:52:00,
2013-05-03 02:01:00,70.0,70.0,29.48,NW,308,2.0,4.0,99,0.00,,,0.00,,2013-05-03 08:01:00,
2013-05-03 02:11:00,70.0,70.0,29.48,NW,308,2.0,4.0,99,0.00,,,0.00,,2013-05-03 08:11:00,
2013-05-03 02:21:00,70.0,70.0,29.48,NW,308,2.0,4.0,99,0.00,,,0.00,,2013-05-03 08:21:00,
2013-05-03 02:31:00,70.0,70.0,29.48,NW,308,2.0,4.0,99,0.00,,,0.00,,2013-05-03 08:31:00,
2013-05-03 02:41:00,70.0,70.0,29.48,NW,308,2.0,4.0,99,0.00,,,0.00,,2013-05-03 08:41:00,
2013-05-03 02:52:00,70.0,70.0,29.47,NW,308,2.0,4.0,99,0.00,,,0.00,,2013-05-03 08:52:00,
2013-05-03 03:01:00,70.0,70.0,29.48,NW,308,2.0,4.0,99,0.00,,,0.00,,2013-05-03 09:01:00,
2013-05-03 03:11:00,70.0,70.0,29.48,NW,308,2.0,4.0,99,0.00,,,0.00,,2013-05-03 09:11:00,
2013-05-03 03:21:00,70.0,70.0,29.48,NW,308,2.0,4.0,99,0.00,,,0.00,,2013-05-03 09:21:00,
2013-05-03 03:32:00,70.0,70.0,29.47,NW,308,2.0,4.0,99,0.00,,,0.00,,2013-05-03 09:32:00,
2013-05-03 03:42:00,70.0,70.0,29.47,NW,308,2.0,4.0,99,0.00,,,0.00,,2013-05-03 09:42:00,
2013-05-03 03:52:00,70.0,70.0,29.47,NW,308,2.0,4.0,99,0.00,,,0.00,,2013-05-03 09:52:00,
2013-05-03 04:02:00,70.0,70.0,29.48,NW,308,2.0,4.0,99,0.00,,,0.00,,2013-05-03 10:02:00,
2013-05-03 04:12:00,70.0,70.0,29.47,NW,308,2.0,4.0,99,0.00,,,0.00,,2013-05-03 10:12:00,
2013-05-03 04:22:00,70.0,70.0,29.47,NW,308,2.0,4.0,99,0.00,,,0.00,,2013-05-03 10:22:00,
2013-05-03 04:32:00,70.0,70.0,29.48,NW,308,2.0,4.0,99,0.00,,,0.00,,2013-05-03 10:32:00,
2013-05-03 04:42:00,70.0,70.0,29.48,NW,308,2.0,4.0,99,0.00,,,0.00,,2013-05-03 10:42:00,
2013-05-03 04:52:00,70.0,70.0,29.49,NW,308,2.0,4.0,99,0.00,,,0.00,,2013-05-03 10:52:00,
2013-05-03 05:02:00,70.0,70.0,29.49,NW,308,2.0,4.0,99,0.00,,,0.00,,2013-05-03 11:02:00,
2013-05-03 05:11:00,70.0,70.0,29.49,NW,308,2.0,4.0,99,0.00,,,0.00,,2013-05-03 11:11:00,
2013-05-03 05:21:00,70.0,70.0,29.49,NW,308,2.0,4.0,99,0.00,,,0.00,,2013-05-03 11:21:00,
2013-05-03 05:31:00,70.0,70.0,29.51,NW,308,2.0,4.0,99,0.00,,,0.00,,2013-05-03 11:31:00,
2013-05-03 05:41:00,70.0,70.0,29.51,NW,308,2.0,4.0,99,0.00,,,0.00,,2013-05-03 11:41:00,
2013-05-03 05:52:00,70.0,70.0,29.51,NW,308,2.0,4.0,99,0.00,,,0.00,,2013-05-03 11:52:00,
2013-05-03 06:01:00,70.0,70.0,29.52,NW,308,2.0,4.0,99,0.00,,,0.00,,2013-05-03 12:01:00,
2013-05-03 06:11:00,70.0,70.0,29.52,NW,308,2.0,4.0,99,0.00,,,0.00,,2013-05-03 12:11:00,
2013-05-03 06:21:00,70.0,70.0,29.53,NW,308,2.0,4.0,99,0.00,,,0.00,,2013-05-03 12:21:00,
2013-05-03 06:32:00,70.0,70.0,29.53,NW,308,2.0,4.0,99,0.00,,,0.00,,2013-05-03 12:32:00,
2013-05-03 06:41:00,70.0,70.0,29.53,NW,308,2.0,4.0,99,0.00,,,0.00,,2013-05-03 12:41:00,
2013-05-03 06:51:00,70.0,70.0,29.54,NW,308,2.0,4.0,99,0.00,,,0.00,,2013-05-03 12:51:00,
2013-05-03 07:01:00,70.0,70.0,29.54,NW,308,2.0,4.0,99,0.00,,,0.00,,2013-05-03 13:01:00,
2013-05-03 07:11:00,70.0,70.0,29.54,NW,308,2.0,4.0,99,0.00,,,0.00,,2013-05-03 13:11:00,
2013-05-03 07:22:00,70.0,70.0,29.55,NW,308,2.0,4.0,99,0.00,,,0.00,,2013-05-03 13:22:00,
2013-05-03 07:31:00,70.0,70.0,29.54,NW,308,2.0,4.0,99,0.00,,,0.00,,2013-05-03 13:31:00,
2013-05-03 07:42:00,70.0,70.0,29.54,NW,308,2.0,4.0,99,0.00,,,0.00,,2013-05-03 13:42:00,
2013-05-03 07:52:00,70.0,70.0,29.54,NW,308,2.0,4.0,99,0.00,,,0.00,,2013-05-03 13:52:00,
2013-05-03 08:01:00,70.0,70.0,29.56,NW,308,2.0,4.0,99,0.00,,,0.00,,2013-05-03 14:01:00,
2013-05-03 08:11:00,70.0,70.0,29.56,NW,308,2.0,4.0,99,0.00,,,0.00,,2013-05-03 14:11:00,
2013-05-03 08:21:00,70.0,70.0,29.56,NW,308,2.0,4.0,99,0.00,,,0.00,,2013-05-03 14:21:00,
2013-05-03 08:31:00,70.0,70.0,29.56,NW,308,2.0,4.0,99,0.00,,,0.00,,2013-05-03 14:31:00,
2013-05-03 08:41:00,70.0,70.0,29.56,NW,308,2.0,4.0,99,0.00,,,0.00,,2013-05-03 14:41:00,
2013-05-03 08:52:00,70.0,70.0,29.57,NW,308,2.0,4.0,99,0.00,,,0.00,,2013-05-03 14:52:00,
2013-05-03 09:01:00,70.0,70.0,29.55,NW,308,2.0,4.0,99,0.00,,,0.00,,2013-05-03 15:01:00,
2013-05-03 09:11:00,70.0,70.0,29.55,NW,308,2.0,4.0,99,0.00,,,0.00,,2013-05-03 15:11:00,
2013-05-03 09:21:00,70.0,70.0,29.55,NW,308,2.0,4.0,99,0.00,,,0.00,,2013-05-03 15:21:00,
2013-05-03 09:32:00,70.0,70.0,29.56,NW,308,2.0,4.0,99,0.00,,,0.00,,2013-05-03 15:32:00,
2013-05-03 09:43:00,70.0,70.0,29.56,NW,308,2.0,4.0,99,0.00,,,0.00,,2013-05-03 15:43:00,
2013-05-03 09:53:00,70.0,70.0,29.56,NW,308,2.0,4.0,99,0.00,,,0.00,,2013-05-03 15:53:00,
2013-05-03 10:02:00,70.0,70.0,29.56,NW,308,2.0,4.0,99,0.00,,,0.00,,2013-05-03 16:02:00,
2013-05-03 12:52:00,81.0,74.0,29.48,WNW,286,9.0,16.0,80,0.00,,,1.08,,2013-05-03 18:52:00,
2013-05-03 13:01:00,82.0,75.0,29.48,WNW,287,4.0,15.0,80,0.00,,,1.09,,2013-05-03 19:01:00,
2013-05-03 13:11:00,82.0,75.0,29.48,WNW,287,4.0,15.0,80,0.00,,,1.09,,2013-05-03 19:11:00,
2013-05-03 13:21:00,83.0,74.0,29.45,WNW,300,6.0,11.0,75,0.00,,,1.05,,2013-05-03 19:21:00,
2013-05-03 13:31:00,83.0,74.0,29.45,NW,311,10.0,16.0,75,0.00,,,1.10,,2013-05-03 19:31:00,
2013-05-03 13:42:00,83.0,74.0,29.45,NW,311,10.0,16.0,75,0.00,,,1.10,,2013-05-03 19:42:00,
2013-05-03 13:52:00,82.0,74.0,29.45,NW,309,7.0,17.0,78,0.00,,,1.10,,2013-05-03 19:52:00,
2013-05-03 14:02:00,78.0,73.0,29.45,WNW,290,8.0,18.0,85,0.00,,,1.04,,2013-05-03 20:02:00,
2013-05-03 14:11:00,78.0,73.0,29.45,WNW,290,8.0,18.0,85,0.00,,,1.04,,2013-05-03 20:11:00,
2013-05-03 14:21:00,79.0,72.0,29.45,NW,304,11.0,17.0,79,0.00,,,1.09,,2013-05-03 20:21:00,
2013-05-03 14:31:00,81.0,72.0,29.43,WNW,301,11.0,17.0,74,0.00,,,1.10,,2013-05-03 20:31:00,
2013-05-03 14:41:00,81.0,72.0,29.43,WNW,301,11.0,17.0,74,0.00,,,1.10,,2013-05-03 20:41:00,
2013-05-03 14:52:00,82.0,73.0,29.42,NW,316,5.0,16.0,75,0.00,,,1.12,,2013-05-03 20:52:00,
2013-05-03 15:01:00,82.0,74.0,29.42,NW,315,8.0,17.0,76,0.00,,,1.11,,2013-05-03 21:01:00,
2013-05-03 15:11:00,82.0,74.0,29.42,NW,315,8.0,17.0,76,0.00,,,1.11,,2013-05-03 21:11:00,
2013-05-03 15:21:00,82.0,74.0,29.41,NNW,327,9.0,18.0,76,0.00,,,1.09,,2013-05-03 21:21:00,
2013-05-03 15:32:00,80.0,73.0,29.41,NW,324,10.0,21.0,79,0.00,,,1.09,,2013-05-03 21:32:00,
2013-05-03 15:42:00,80.0,73.0,29.41,NW,324,10.0,21.0,79,0.00,,,1.09,,2013-05-03 21:42:00,
2013-05-03 15:52:00,78.0,71.0,29.43,NW,318,10.0,17.0,80,0.00,,,1.08,,2013-05-03 21:52:00,
2013-05-03 16:02:00,77.0,71.0,29.45,NW,314,8.0,20.0,82,0.00,,,1.12,,2013-05-03 22:02:00,
2013-05-03 16:12:00,77.0,71.0,29.45,NW,314,8.0,20.0,82,0.00,,,1.12,,2013-05-03 22:12:00,
2013-05-03 16:22:00,76.0,72.0,29.45,NW,323,6.0,19.0,88,0.00,,,1.17,,2013-05-03 22:22:00,
2013-05-03 16:32:00,75.0,72.0,29.45,NW,311,8.0,17.0,90,0.00,,,1.16,,2013-05-03 22:32:00,
2013-05-03 16:42:00,75.0,72.0,29.45,NW,311,8.0,17.0,90,0.00,,,1.16,,2013-05-03 22:42:00,
2013-05-03 16:52:00,74.0,72.0,29.47,NW,311,7.0,17.0,93,0.00,,,1.10,,2013-05-03 22:52:00,
2013-05-03 17:01:00,73.0,73.0,29.47,NW,321,8.0,15.0,99,0.00,,,1.05,,2013-05-03 23:01:00,
2013-05-03 17:11:00,73.0,73.0,29.47,NW,321,8.0,15.0,99,0.00,,,1.05,,2013-05-03 23:11:00,
2013-05-03 17:21:00,72.0,72.0,29.49,NW,320,5.0,18.0,99,0.00,,,1.08,,2013-05-03 23:21:00,
2013-05-03 17:31:00,72.0,72.0,29.48,NW,305,6.0,13.0,99,0.00,,,1.13,,2013-05-03 23:31:00,
2013-05-03 17:41:00,72.0,72.0,29.48,NW,305,6.0,13.0,99,0.00,,,1.13,,2013-05-03 23:41:00,
2013-05-03 17:52:00,72.0,72.0,29.48,NW,305,6.0,13.0,99,0.00,,,1.13,,2013-05-03 23:52:00,
2013-05-03 18:01:00,72.0,72.0,29.48,NW,305,6.0,13.0,99,0.00,,,1.13,,2013-05-04 00:01:00,
2013-05-03 18:11:00,72.0,72.0,29.48,NW,305,6.0,13.0,99,0.00,,,1.13,,2013-05-04 00:11:00,